sensor_id;sensor_type;location;lat;lon;timestamp;pressure;altitude;pressure_sealevel;temperature
15607;BMP180;7865;50.918;4.510;2023-04-25T00:02:43;100610.00;;;7.50
15607;BMP180;7865;50.918;4.510;2023-04-25T00:07:45;100606.00;;;7.50
15607;BMP180;7865;50.918;4.510;2023-04-25T00:12:47;100614.00;;;7.40
15607;BMP180;7865;50.918;4.510;2023-04-25T00:17:49;100613.00;;;7.40
15607;BMP180;7865;50.918;4.510;2023-04-25T00:22:50;100615.00;;;7.40
15607;BMP180;7865;50.918;4.510;2023-04-25T00:27:54;100620.00;;;7.40
15607;BMP180;7865;50.918;4.510;2023-04-25T00:32:55;100610.00;;;7.40
15607;BMP180;7865;50.918;4.510;2023-04-25T00:37:56;100613.00;;;7.40
15607;BMP180;7865;50.918;4.510;2023-04-25T00:42:58;100617.00;;;7.40
15607;BMP180;7865;50.918;4.510;2023-04-25T00:47:59;100621.00;;;7.40
15607;BMP180;7865;50.918;4.510;2023-04-25T00:53:01;100622.00;;;7.40
15607;BMP180;7865;50.918;4.510;2023-04-25T00:58:04;100624.00;;;7.40
15607;BMP180;7865;50.918;4.510;2023-04-25T01:03:06;100629.00;;;7.40
15607;BMP180;7865;50.918;4.510;2023-04-25T01:08:07;100629.00;;;7.40
15607;BMP180;7865;50.918;4.510;2023-04-25T01:13:09;100622.00;;;7.40
15607;BMP180;7865;50.918;4.510;2023-04-25T01:18:10;100620.00;;;7.30
15607;BMP180;7865;50.918;4.510;2023-04-25T01:23:13;100624.00;;;7.30
15607;BMP180;7865;50.918;4.510;2023-04-25T01:28:15;100635.00;;;7.30
15607;BMP180;7865;50.918;4.510;2023-04-25T01:33:19;100639.00;;;7.30
15607;BMP180;7865;50.918;4.510;2023-04-25T01:38:22;100646.00;;;7.30
15607;BMP180;7865;50.918;4.510;2023-04-25T01:43:23;100648.00;;;7.20
15607;BMP180;7865;50.918;4.510;2023-04-25T01:48:24;100654.00;;;7.10
15607;BMP180;7865;50.918;4.510;2023-04-25T01:53:26;100653.00;;;7.00
15607;BMP180;7865;50.918;4.510;2023-04-25T01:58:28;100657.00;;;6.90
15607;BMP180;7865;50.918;4.510;2023-04-25T02:03:45;100657.00;;;6.90
15607;BMP180;7865;50.918;4.510;2023-04-25T02:08:56;100667.00;;;6.80
15607;BMP180;7865;50.918;4.510;2023-04-25T02:13:58;100676.00;;;6.80
15607;BMP180;7865;50.918;4.510;2023-04-25T02:19:17;100671.00;;;6.80
15607;BMP180;7865;50.918;4.510;2023-04-25T02:24:18;100667.00;;;6.80
15607;BMP180;7865;50.918;4.510;2023-04-25T02:29:20;100669.00;;;6.80
15607;BMP180;7865;50.918;4.510;2023-04-25T02:34:21;100668.00;;;6.80
15607;BMP180;7865;50.918;4.510;2023-04-25T02:39:23;100661.00;;;6.80
15607;BMP180;7865;50.918;4.510;2023-04-25T02:44:26;100670.00;;;6.80
15607;BMP180;7865;50.918;4.510;2023-04-25T02:49:27;100663.00;;;6.80
15607;BMP180;7865;50.918;4.510;2023-04-25T02:54:29;100666.00;;;6.70
15607;BMP180;7865;50.918;4.510;2023-04-25T02:59:31;100659.00;;;6.70
15607;BMP180;7865;50.918;4.510;2023-04-25T03:04:33;100665.00;;;6.70
15607;BMP180;7865;50.918;4.510;2023-04-25T03:09:34;100661.00;;;6.70
15607;BMP180;7865;50.918;4.510;2023-04-25T03:14:37;100665.00;;;6.70
15607;BMP180;7865;50.918;4.510;2023-04-25T03:19:39;100677.00;;;6.70
15607;BMP180;7865;50.918;4.510;2023-04-25T03:24:40;100690.00;;;6.70
15607;BMP180;7865;50.918;4.510;2023-04-25T03:29:41;100687.00;;;6.60
15607;BMP180;7865;50.918;4.510;2023-04-25T03:34:44;100684.00;;;6.30
15607;BMP180;7865;50.918;4.510;2023-04-25T03:39:46;100696.00;;;6.20
15607;BMP180;7865;50.918;4.510;2023-04-25T03:44:48;100700.00;;;6.10
15607;BMP180;7865;50.918;4.510;2023-04-25T03:49:50;100699.00;;;6.00
15607;BMP180;7865;50.918;4.510;2023-04-25T03:54:56;100698.00;;;5.90
15607;BMP180;7865;50.918;4.510;2023-04-25T03:59:59;100703.00;;;5.80
15607;BMP180;7865;50.918;4.510;2023-04-25T04:05:03;100700.00;;;5.80
15607;BMP180;7865;50.918;4.510;2023-04-25T04:10:09;100696.00;;;5.80
15607;BMP180;7865;50.918;4.510;2023-04-25T04:15:13;100710.00;;;5.80
15607;BMP180;7865;50.918;4.510;2023-04-25T04:20:17;100717.00;;;5.70
15607;BMP180;7865;50.918;4.510;2023-04-25T04:25:19;100721.00;;;5.80
15607;BMP180;7865;50.918;4.510;2023-04-25T04:30:44;100720.00;;;5.70
15607;BMP180;7865;50.918;4.510;2023-04-25T04:35:47;100726.00;;;5.80
15607;BMP180;7865;50.918;4.510;2023-04-25T04:40:48;100730.00;;;5.80
15607;BMP180;7865;50.918;4.510;2023-04-25T04:46:03;100735.00;;;5.80
15607;BMP180;7865;50.918;4.510;2023-04-25T04:51:16;100742.00;;;5.80
15607;BMP180;7865;50.918;4.510;2023-04-25T04:56:37;100744.00;;;5.70
15607;BMP180;7865;50.918;4.510;2023-04-25T05:01:57;100763.00;;;5.80
15607;BMP180;7865;50.918;4.510;2023-04-25T05:07:22;100764.00;;;5.80
15607;BMP180;7865;50.918;4.510;2023-04-25T05:12:43;100773.00;;;5.70
15607;BMP180;7865;50.918;4.510;2023-04-25T05:17:52;100774.00;;;5.70
15607;BMP180;7865;50.918;4.510;2023-04-25T05:23:07;100777.00;;;5.70
15607;BMP180;7865;50.918;4.510;2023-04-25T05:28:17;100777.00;;;5.80
15607;BMP180;7865;50.918;4.510;2023-04-25T05:33:39;100787.00;;;5.90
15607;BMP180;7865;50.918;4.510;2023-04-25T05:38:41;100791.00;;;6.10
15607;BMP180;7865;50.918;4.510;2023-04-25T05:43:49;100794.00;;;6.20
15607;BMP180;7865;50.918;4.510;2023-04-25T05:48:58;100797.00;;;6.20
15607;BMP180;7865;50.918;4.510;2023-04-25T05:54:25;100806.00;;;6.30
15607;BMP180;7865;50.918;4.510;2023-04-25T05:59:29;100810.00;;;6.50
15607;BMP180;7865;50.918;4.510;2023-04-25T06:04:31;100804.00;;;6.60
15607;BMP180;7865;50.918;4.510;2023-04-25T06:09:34;100818.00;;;6.80
15607;BMP180;7865;50.918;4.510;2023-04-25T06:14:35;100825.00;;;7.00
15607;BMP180;7865;50.918;4.510;2023-04-25T06:19:36;100816.00;;;6.90
15607;BMP180;7865;50.918;4.510;2023-04-25T06:24:38;100827.00;;;7.10
15607;BMP180;7865;50.918;4.510;2023-04-25T06:29:40;100825.00;;;7.30
15607;BMP180;7865;50.918;4.510;2023-04-25T06:34:42;100825.00;;;7.60
15607;BMP180;7865;50.918;4.510;2023-04-25T06:39:44;100829.00;;;8.00
15607;BMP180;7865;50.918;4.510;2023-04-25T06:44:46;100837.00;;;8.20
15607;BMP180;7865;50.918;4.510;2023-04-25T06:49:48;100844.00;;;8.10
15607;BMP180;7865;50.918;4.510;2023-04-25T06:54:49;100855.00;;;8.10
15607;BMP180;7865;50.918;4.510;2023-04-25T07:00:08;100862.00;;;8.20
15607;BMP180;7865;50.918;4.510;2023-04-25T07:05:11;100862.00;;;8.40
15607;BMP180;7865;50.918;4.510;2023-04-25T07:10:13;100866.00;;;8.70
15607;BMP180;7865;50.918;4.510;2023-04-25T07:15:14;100873.00;;;8.80
15607;BMP180;7865;50.918;4.510;2023-04-25T07:20:19;100872.00;;;9.00
15607;BMP180;7865;50.918;4.510;2023-04-25T07:25:21;100871.00;;;9.40
15607;BMP180;7865;50.918;4.510;2023-04-25T07:30:23;100880.00;;;9.70
15607;BMP180;7865;50.918;4.510;2023-04-25T07:35:25;100872.00;;;9.90
15607;BMP180;7865;50.918;4.510;2023-04-25T07:40:26;100874.00;;;10.00
15607;BMP180;7865;50.918;4.510;2023-04-25T07:45:33;100866.00;;;10.20
15607;BMP180;7865;50.918;4.510;2023-04-25T07:50:36;100874.00;;;10.40
15607;BMP180;7865;50.918;4.510;2023-04-25T07:55:38;100876.00;;;10.30
15607;BMP180;7865;50.918;4.510;2023-04-25T08:00:46;100869.00;;;10.30
15607;BMP180;7865;50.918;4.510;2023-04-25T08:06:12;100884.00;;;10.00
15607;BMP180;7865;50.918;4.510;2023-04-25T08:11:23;100897.00;;;9.90
15607;BMP180;7865;50.918;4.510;2023-04-25T08:16:27;100899.00;;;10.50
15607;BMP180;7865;50.918;4.510;2023-04-25T08:21:29;100910.00;;;11.10
15607;BMP180;7865;50.918;4.510;2023-04-25T08:26:33;100916.00;;;10.50
15607;BMP180;7865;50.918;4.510;2023-04-25T08:31:36;100919.00;;;9.60
15607;BMP180;7865;50.918;4.510;2023-04-25T08:36:39;100930.00;;;9.70
15607;BMP180;7865;50.918;4.510;2023-04-25T08:42:05;100930.00;;;9.90
15607;BMP180;7865;50.918;4.510;2023-04-25T08:47:09;100932.00;;;9.90
15607;BMP180;7865;50.918;4.510;2023-04-25T08:52:22;100931.00;;;11.60
15607;BMP180;7865;50.918;4.510;2023-04-25T08:57:24;100929.00;;;13.40
15607;BMP180;7865;50.918;4.510;2023-04-25T09:02:26;100937.00;;;15.10
15607;BMP180;7865;50.918;4.510;2023-04-25T09:07:28;100942.00;;;13.30
15607;BMP180;7865;50.918;4.510;2023-04-25T09:12:30;100962.00;;;10.90
15607;BMP180;7865;50.918;4.510;2023-04-25T09:17:32;100964.00;;;9.80
15607;BMP180;7865;50.918;4.510;2023-04-25T09:22:36;100972.00;;;9.60
15607;BMP180;7865;50.918;4.510;2023-04-25T09:27:52;100980.00;;;10.10
15607;BMP180;7865;50.918;4.510;2023-04-25T09:33:07;100991.00;;;10.40
15607;BMP180;7865;50.918;4.510;2023-04-25T09:38:14;100982.00;;;11.30
15607;BMP180;7865;50.918;4.510;2023-04-25T09:43:44;100976.00;;;13.00
15607;BMP180;7865;50.918;4.510;2023-04-25T09:48:50;100983.00;;;13.50
15607;BMP180;7865;50.918;4.510;2023-04-25T09:54:00;100985.00;;;12.80
15607;BMP180;7865;50.918;4.510;2023-04-25T09:59:16;100986.00;;;14.80
15607;BMP180;7865;50.918;4.510;2023-04-25T10:04:24;100997.00;;;14.60
15607;BMP180;7865;50.918;4.510;2023-04-25T10:09:33;101000.00;;;13.40
15607;BMP180;7865;50.918;4.510;2023-04-25T10:14:38;100991.00;;;13.30
15607;BMP180;7865;50.918;4.510;2023-04-25T10:19:39;101004.00;;;14.90
15607;BMP180;7865;50.918;4.510;2023-04-25T10:24:41;100989.00;;;16.10
15607;BMP180;7865;50.918;4.510;2023-04-25T10:29:42;100989.00;;;18.30
15607;BMP180;7865;50.918;4.510;2023-04-25T10:34:44;101002.00;;;18.10
15607;BMP180;7865;50.918;4.510;2023-04-25T10:39:49;101000.00;;;16.80
15607;BMP180;7865;50.918;4.510;2023-04-25T10:45:01;101001.00;;;15.40
15607;BMP180;7865;50.918;4.510;2023-04-25T10:50:06;101000.00;;;16.60
15607;BMP180;7865;50.918;4.510;2023-04-25T10:55:09;101004.00;;;14.10
15607;BMP180;7865;50.918;4.510;2023-04-25T11:00:13;101014.00;;;11.50
15607;BMP180;7865;50.918;4.510;2023-04-25T11:05:36;101018.00;;;10.10
15607;BMP180;7865;50.918;4.510;2023-04-25T11:10:58;101031.00;;;9.50
15607;BMP180;7865;50.918;4.510;2023-04-25T11:16:00;101016.00;;;9.90
15607;BMP180;7865;50.918;4.510;2023-04-25T11:21:14;101021.00;;;10.50
15607;BMP180;7865;50.918;4.510;2023-04-25T11:26:15;101028.00;;;11.70
15607;BMP180;7865;50.918;4.510;2023-04-25T11:31:20;101023.00;;;13.00
15607;BMP180;7865;50.918;4.510;2023-04-25T11:36:23;101030.00;;;13.10
15607;BMP180;7865;50.918;4.510;2023-04-25T11:41:25;101010.00;;;12.60
15607;BMP180;7865;50.918;4.510;2023-04-25T11:46:27;101026.00;;;12.50
15607;BMP180;7865;50.918;4.510;2023-04-25T11:51:29;101013.00;;;12.70
15607;BMP180;7865;50.918;4.510;2023-04-25T11:56:31;101008.00;;;14.40
15607;BMP180;7865;50.918;4.510;2023-04-25T12:01:38;101022.00;;;16.00
15607;BMP180;7865;50.918;4.510;2023-04-25T12:06:41;101024.00;;;17.20
15607;BMP180;7865;50.918;4.510;2023-04-25T12:11:53;101029.00;;;16.40
15607;BMP180;7865;50.918;4.510;2023-04-25T12:16:56;101032.00;;;14.30
15607;BMP180;7865;50.918;4.510;2023-04-25T12:22:00;101037.00;;;13.70
15607;BMP180;7865;50.918;4.510;2023-04-25T12:27:03;101036.00;;;13.80
15607;BMP180;7865;50.918;4.510;2023-04-25T12:32:05;101027.00;;;13.90
15607;BMP180;7865;50.918;4.510;2023-04-25T12:37:06;101031.00;;;15.20
15607;BMP180;7865;50.918;4.510;2023-04-25T12:42:08;101043.00;;;14.90
15607;BMP180;7865;50.918;4.510;2023-04-25T12:47:12;101051.00;;;14.50
15607;BMP180;7865;50.918;4.510;2023-04-25T12:52:14;101048.00;;;14.50
15607;BMP180;7865;50.918;4.510;2023-04-25T12:57:15;101054.00;;;14.40
15607;BMP180;7865;50.918;4.510;2023-04-25T13:02:17;101037.00;;;15.00
15607;BMP180;7865;50.918;4.510;2023-04-25T13:07:18;101052.00;;;15.90
15607;BMP180;7865;50.918;4.510;2023-04-25T13:12:20;101057.00;;;15.40
15607;BMP180;7865;50.918;4.510;2023-04-25T13:17:21;101057.00;;;16.10
15607;BMP180;7865;50.918;4.510;2023-04-25T13:22:23;101044.00;;;16.60
15607;BMP180;7865;50.918;4.510;2023-04-25T13:27:24;101050.00;;;16.50
15607;BMP180;7865;50.918;4.510;2023-04-25T13:32:26;101043.00;;;16.70
15607;BMP180;7865;50.918;4.510;2023-04-25T13:37:27;101052.00;;;17.90
15607;BMP180;7865;50.918;4.510;2023-04-25T13:42:31;101050.00;;;16.90
15607;BMP180;7865;50.918;4.510;2023-04-25T13:47:34;101036.00;;;18.00
15607;BMP180;7865;50.918;4.510;2023-04-25T13:52:36;101025.00;;;19.80
15607;BMP180;7865;50.918;4.510;2023-04-25T13:57:37;101053.00;;;17.70
15607;BMP180;7865;50.918;4.510;2023-04-25T14:02:41;101061.00;;;15.30
15607;BMP180;7865;50.918;4.510;2023-04-25T14:07:43;101060.00;;;13.80
15607;BMP180;7865;50.918;4.510;2023-04-25T14:12:44;101060.00;;;14.60
15607;BMP180;7865;50.918;4.510;2023-04-25T14:17:46;101039.00;;;16.10
15607;BMP180;7865;50.918;4.510;2023-04-25T14:22:49;101035.00;;;20.50
15607;BMP180;7865;50.918;4.510;2023-04-25T14:27:50;101041.00;;;22.70
15607;BMP180;7865;50.918;4.510;2023-04-25T14:32:52;101046.00;;;24.20
15607;BMP180;7865;50.918;4.510;2023-04-25T14:37:53;101060.00;;;24.80
15607;BMP180;7865;50.918;4.510;2023-04-25T14:42:55;101059.00;;;24.60
15607;BMP180;7865;50.918;4.510;2023-04-25T14:47:56;101079.00;;;23.70
15607;BMP180;7865;50.918;4.510;2023-04-25T14:52:58;101068.00;;;19.80
15607;BMP180;7865;50.918;4.510;2023-04-25T14:58:01;101069.00;;;20.20
15607;BMP180;7865;50.918;4.510;2023-04-25T15:03:02;101066.00;;;19.30
15607;BMP180;7865;50.918;4.510;2023-04-25T15:08:05;101092.00;;;16.50
15607;BMP180;7865;50.918;4.510;2023-04-25T15:13:07;101094.00;;;15.50
15607;BMP180;7865;50.918;4.510;2023-04-25T15:18:08;101095.00;;;14.40
15607;BMP180;7865;50.918;4.510;2023-04-25T15:23:10;101095.00;;;14.30
15607;BMP180;7865;50.918;4.510;2023-04-25T15:28:11;101087.00;;;14.80
15607;BMP180;7865;50.918;4.510;2023-04-25T15:33:14;101103.00;;;14.60
15607;BMP180;7865;50.918;4.510;2023-04-25T15:38:16;101114.00;;;13.00
15607;BMP180;7865;50.918;4.510;2023-04-25T15:43:17;101116.00;;;14.30
15607;BMP180;7865;50.918;4.510;2023-04-25T15:48:18;101116.00;;;13.80
15607;BMP180;7865;50.918;4.510;2023-04-25T15:53:20;101117.00;;;12.30
15607;BMP180;7865;50.918;4.510;2023-04-25T15:58:21;101117.00;;;11.80
15607;BMP180;7865;50.918;4.510;2023-04-25T16:03:23;101120.00;;;13.10
15607;BMP180;7865;50.918;4.510;2023-04-25T16:08:24;101126.00;;;12.80
15607;BMP180;7865;50.918;4.510;2023-04-25T16:13:26;101134.00;;;12.40
15607;BMP180;7865;50.918;4.510;2023-04-25T16:18:27;101138.00;;;11.40
15607;BMP180;7865;50.918;4.510;2023-04-25T16:23:29;101141.00;;;10.90
15607;BMP180;7865;50.918;4.510;2023-04-25T16:28:31;101131.00;;;10.60
15607;BMP180;7865;50.918;4.510;2023-04-25T16:33:33;101142.00;;;10.20
15607;BMP180;7865;50.918;4.510;2023-04-25T16:38:34;101144.00;;;10.40
15607;BMP180;7865;50.918;4.510;2023-04-25T16:43:36;101140.00;;;10.40
15607;BMP180;7865;50.918;4.510;2023-04-25T16:48:40;101150.00;;;10.10
15607;BMP180;7865;50.918;4.510;2023-04-25T16:53:42;101150.00;;;9.70
15607;BMP180;7865;50.918;4.510;2023-04-25T16:58:43;101140.00;;;9.80
15607;BMP180;7865;50.918;4.510;2023-04-25T17:03:45;101151.00;;;10.00
15607;BMP180;7865;50.918;4.510;2023-04-25T17:08:47;101153.00;;;10.00
15607;BMP180;7865;50.918;4.510;2023-04-25T17:13:48;101148.00;;;9.90
15607;BMP180;7865;50.918;4.510;2023-04-25T17:18:51;101152.00;;;9.90
15607;BMP180;7865;50.918;4.510;2023-04-25T17:23:52;101164.00;;;9.70
15607;BMP180;7865;50.918;4.510;2023-04-25T17:28:54;101165.00;;;9.70
15607;BMP180;7865;50.918;4.510;2023-04-25T17:33:56;101172.00;;;9.60
15607;BMP180;7865;50.918;4.510;2023-04-25T17:38:57;101171.00;;;9.50
15607;BMP180;7865;50.918;4.510;2023-04-25T17:43:59;101174.00;;;9.50
15607;BMP180;7865;50.918;4.510;2023-04-25T17:49:00;101176.00;;;9.30
15607;BMP180;7865;50.918;4.510;2023-04-25T17:54:02;101177.00;;;9.20
15607;BMP180;7865;50.918;4.510;2023-04-25T17:59:04;101186.00;;;9.00
15607;BMP180;7865;50.918;4.510;2023-04-25T18:04:05;101186.00;;;8.90
15607;BMP180;7865;50.918;4.510;2023-04-25T18:09:07;101186.00;;;8.80
15607;BMP180;7865;50.918;4.510;2023-04-25T18:14:16;101187.00;;;8.60
15607;BMP180;7865;50.918;4.510;2023-04-25T18:19:17;101203.00;;;8.50
15607;BMP180;7865;50.918;4.510;2023-04-25T18:24:23;101205.00;;;8.30
15607;BMP180;7865;50.918;4.510;2023-04-25T18:29:27;101209.00;;;8.10
15607;BMP180;7865;50.918;4.510;2023-04-25T18:34:31;101224.00;;;8.00
15607;BMP180;7865;50.918;4.510;2023-04-25T18:39:33;101241.00;;;7.80
15607;BMP180;7865;50.918;4.510;2023-04-25T18:44:34;101234.00;;;7.60
15607;BMP180;7865;50.918;4.510;2023-04-25T18:49:39;101239.00;;;7.40
15607;BMP180;7865;50.918;4.510;2023-04-25T18:54:41;101240.00;;;7.20
15607;BMP180;7865;50.918;4.510;2023-04-25T18:59:43;101241.00;;;7.10
15607;BMP180;7865;50.918;4.510;2023-04-25T19:04:46;101253.00;;;7.00
15607;BMP180;7865;50.918;4.510;2023-04-25T19:09:48;101260.00;;;6.80
15607;BMP180;7865;50.918;4.510;2023-04-25T19:14:49;101253.00;;;6.60
15607;BMP180;7865;50.918;4.510;2023-04-25T19:19:51;101255.00;;;6.50
15607;BMP180;7865;50.918;4.510;2023-04-25T19:24:52;101262.00;;;6.40
15607;BMP180;7865;50.918;4.510;2023-04-25T19:30:10;101263.00;;;6.30
15607;BMP180;7865;50.918;4.510;2023-04-25T19:35:12;101278.00;;;6.20
15607;BMP180;7865;50.918;4.510;2023-04-25T19:40:15;101270.00;;;6.10
15607;BMP180;7865;50.918;4.510;2023-04-25T19:45:16;101273.00;;;6.00
15607;BMP180;7865;50.918;4.510;2023-04-25T19:50:18;101275.00;;;5.90
15607;BMP180;7865;50.918;4.510;2023-04-25T19:55:22;101282.00;;;5.80
15607;BMP180;7865;50.918;4.510;2023-04-25T20:00:23;101287.00;;;5.80
15607;BMP180;7865;50.918;4.510;2023-04-25T20:05:25;101285.00;;;5.70
15607;BMP180;7865;50.918;4.510;2023-04-25T20:10:27;101292.00;;;5.60
15607;BMP180;7865;50.918;4.510;2023-04-25T20:15:28;101279.00;;;5.40
15607;BMP180;7865;50.918;4.510;2023-04-25T20:20:30;101285.00;;;5.20
15607;BMP180;7865;50.918;4.510;2023-04-25T20:25:31;101288.00;;;5.10
15607;BMP180;7865;50.918;4.510;2023-04-25T20:30:33;101294.00;;;5.00
15607;BMP180;7865;50.918;4.510;2023-04-25T20:35:34;101304.00;;;4.90
15607;BMP180;7865;50.918;4.510;2023-04-25T20:40:36;101296.00;;;4.90
15607;BMP180;7865;50.918;4.510;2023-04-25T20:45:38;101306.00;;;4.80
15607;BMP180;7865;50.918;4.510;2023-04-25T20:50:40;101305.00;;;4.70
15607;BMP180;7865;50.918;4.510;2023-04-25T20:55:42;101295.00;;;4.60
15607;BMP180;7865;50.918;4.510;2023-04-25T21:00:44;101309.00;;;4.60
15607;BMP180;7865;50.918;4.510;2023-04-25T21:05:47;101304.00;;;4.50
15607;BMP180;7865;50.918;4.510;2023-04-25T21:10:48;101306.00;;;4.30
15607;BMP180;7865;50.918;4.510;2023-04-25T21:15:50;101310.00;;;4.20
15607;BMP180;7865;50.918;4.510;2023-04-25T21:20:51;101306.00;;;4.00
15607;BMP180;7865;50.918;4.510;2023-04-25T21:25:53;101310.00;;;3.80
15607;BMP180;7865;50.918;4.510;2023-04-25T21:30:54;101304.00;;;3.70
15607;BMP180;7865;50.918;4.510;2023-04-25T21:35:56;101305.00;;;3.60
15607;BMP180;7865;50.918;4.510;2023-04-25T21:40:57;101314.00;;;3.50
15607;BMP180;7865;50.918;4.510;2023-04-25T21:45:59;101327.00;;;3.50
15607;BMP180;7865;50.918;4.510;2023-04-25T21:51:20;101323.00;;;3.40
15607;BMP180;7865;50.918;4.510;2023-04-25T21:56:22;101340.00;;;3.30
15607;BMP180;7865;50.918;4.510;2023-04-25T22:01:24;101341.00;;;3.20
15607;BMP180;7865;50.918;4.510;2023-04-25T22:06:27;101339.00;;;3.10
15607;BMP180;7865;50.918;4.510;2023-04-25T22:11:28;101329.00;;;3.10
15607;BMP180;7865;50.918;4.510;2023-04-25T22:16:30;101331.00;;;3.00
15607;BMP180;7865;50.918;4.510;2023-04-25T22:21:31;101325.00;;;2.90
15607;BMP180;7865;50.918;4.510;2023-04-25T22:26:33;101322.00;;;2.90
15607;BMP180;7865;50.918;4.510;2023-04-25T22:31:34;101331.00;;;2.80
15607;BMP180;7865;50.918;4.510;2023-04-25T22:36:35;101327.00;;;2.70
15607;BMP180;7865;50.918;4.510;2023-04-25T22:41:37;101327.00;;;2.70
15607;BMP180;7865;50.918;4.510;2023-04-25T22:46:38;101338.00;;;2.60
15607;BMP180;7865;50.918;4.510;2023-04-25T22:51:40;101343.00;;;2.50
15607;BMP180;7865;50.918;4.510;2023-04-25T22:56:42;101340.00;;;2.50
15607;BMP180;7865;50.918;4.510;2023-04-25T23:01:43;101350.00;;;2.40
15607;BMP180;7865;50.918;4.510;2023-04-25T23:06:45;101352.00;;;2.30
15607;BMP180;7865;50.918;4.510;2023-04-25T23:11:46;101350.00;;;2.20
15607;BMP180;7865;50.918;4.510;2023-04-25T23:16:48;101343.00;;;2.20
15607;BMP180;7865;50.918;4.510;2023-04-25T23:21:50;101344.00;;;2.10
15607;BMP180;7865;50.918;4.510;2023-04-25T23:26:51;101343.00;;;2.10
15607;BMP180;7865;50.918;4.510;2023-04-25T23:31:53;101348.00;;;2.00
15607;BMP180;7865;50.918;4.510;2023-04-25T23:36:54;101346.00;;;2.00
15607;BMP180;7865;50.918;4.510;2023-04-25T23:41:55;101346.00;;;1.90
15607;BMP180;7865;50.918;4.510;2023-04-25T23:46:57;101342.00;;;1.80
15607;BMP180;7865;50.918;4.510;2023-04-25T23:51:59;101346.00;;;1.80
15607;BMP180;7865;50.918;4.510;2023-04-25T23:57:01;101333.00;;;1.80
